createdAt,value
2023-04-29T00:01:32.506Z,6.00
2023-04-29T00:03:59.998Z,5.90
2023-04-29T00:06:29.139Z,5.90
2023-04-29T00:08:56.528Z,5.90
2023-04-29T00:11:23.582Z,5.80
2023-04-29T00:13:51.429Z,5.90
2023-04-29T00:16:18.810Z,5.80
2023-04-29T00:18:46.356Z,5.80
2023-04-29T00:21:13.506Z,5.80
2023-04-29T00:23:41.180Z,5.80
2023-04-29T00:26:08.425Z,5.90
2023-04-29T00:28:36.315Z,5.90
2023-04-29T00:31:03.460Z,5.90
2023-04-29T00:33:31.158Z,5.90
2023-04-29T00:35:58.261Z,5.90
2023-04-29T00:38:25.920Z,6.00
2023-04-29T00:40:53.077Z,6.00
2023-04-29T00:43:20.716Z,6.00
2023-04-29T00:45:48.635Z,6.00
2023-04-29T00:48:16.028Z,6.00
2023-04-29T00:50:43.397Z,6.00
2023-04-29T00:53:12.955Z,6.10
2023-04-29T00:55:46.913Z,6.10
2023-04-29T00:58:14.280Z,6.20
2023-04-29T01:00:41.805Z,6.20
2023-04-29T01:03:09.948Z,6.10
2023-04-29T01:05:37.337Z,6.10
2023-04-29T01:08:32.079Z,6.30
2023-04-29T01:11:10.947Z,6.20
2023-04-29T01:14:00.883Z,6.20
2023-04-29T01:16:38.244Z,6.20
2023-04-29T01:19:40.207Z,6.20
2023-04-29T01:22:07.482Z,6.10
2023-04-29T01:24:35.927Z,6.10
2023-04-29T01:27:28.414Z,6.10
2023-04-29T01:30:10.924Z,6.10
2023-04-29T01:32:56.021Z,6.00
2023-04-29T01:35:43.623Z,6.00
2023-04-29T01:38:34.141Z,6.00
2023-04-29T01:41:18.897Z,6.00
2023-04-29T01:43:52.430Z,5.90
2023-04-29T01:46:23.399Z,5.90
2023-04-29T01:48:56.671Z,5.80
2023-04-29T01:51:24.859Z,5.80
2023-04-29T01:53:51.983Z,5.80
2023-04-29T01:56:19.452Z,5.80
2023-04-29T01:59:00.910Z,5.70
2023-04-29T02:01:43.875Z,5.70
2023-04-29T02:04:11.631Z,5.60
2023-04-29T02:06:39.272Z,5.60
2023-04-29T02:09:06.585Z,5.60
2023-04-29T02:11:35.633Z,5.60
2023-04-29T02:14:02.662Z,5.50
2023-04-29T02:16:30.424Z,5.50
2023-04-29T02:19:01.656Z,5.50
2023-04-29T02:21:29.086Z,5.50
2023-04-29T02:23:56.953Z,5.50
2023-04-29T02:26:25.493Z,5.50
2023-04-29T02:28:57.830Z,5.50
2023-04-29T02:31:25.508Z,5.50
2023-04-29T02:33:54.351Z,5.60
2023-04-29T02:36:21.690Z,5.60
2023-04-29T02:38:51.774Z,5.60
2023-04-29T02:41:20.003Z,5.60
2023-04-29T02:43:51.333Z,5.60
2023-04-29T02:46:19.280Z,5.60
2023-04-29T02:48:46.380Z,5.60
2023-04-29T02:51:15.420Z,5.70
2023-04-29T02:53:42.821Z,5.70
2023-04-29T02:56:10.424Z,5.70
2023-04-29T02:58:37.572Z,5.70
2023-04-29T03:01:05.539Z,5.80
2023-04-29T03:03:33.879Z,5.80
2023-04-29T03:06:01.688Z,5.90
2023-04-29T03:08:28.954Z,6.00
2023-04-29T03:10:56.765Z,5.90
2023-04-29T03:13:24.125Z,6.00
2023-04-29T03:15:52.090Z,6.00
2023-04-29T03:18:19.458Z,6.00
2023-04-29T03:20:48.635Z,6.10
2023-04-29T03:23:15.847Z,6.10
2023-04-29T03:25:43.348Z,6.10
2023-04-29T03:28:10.369Z,6.10
2023-04-29T03:30:39.375Z,6.20
2023-04-29T03:33:06.683Z,6.20
2023-04-29T03:35:34.277Z,6.30
2023-04-29T03:38:28.873Z,6.30
2023-04-29T03:40:56.304Z,6.40
2023-04-29T03:43:23.355Z,6.40
2023-04-29T03:45:51.523Z,6.40
2023-04-29T03:48:21.786Z,6.60
2023-04-29T03:50:49.937Z,6.60
2023-04-29T03:53:17.533Z,6.60
2023-04-29T03:55:45.623Z,6.70
2023-04-29T03:58:12.659Z,6.80
2023-04-29T04:00:40.378Z,6.80
2023-04-29T04:03:12.283Z,6.90
2023-04-29T04:05:39.943Z,6.90
2023-04-29T04:08:11.240Z,7.00
2023-04-29T04:11:03.090Z,7.00
2023-04-29T04:13:40.283Z,7.10
2023-04-29T04:16:08.056Z,7.10
2023-04-29T04:18:35.331Z,7.20
2023-04-29T04:21:07.710Z,7.20
2023-04-29T04:23:36.733Z,7.30
2023-04-29T04:26:04.670Z,7.30
2023-04-29T04:28:56.411Z,7.30
2023-04-29T04:31:33.475Z,7.30
2023-04-29T04:34:00.717Z,7.30
2023-04-29T04:36:32.734Z,7.40
2023-04-29T04:38:59.945Z,7.40
2023-04-29T04:41:27.289Z,7.40
2023-04-29T04:43:54.375Z,7.40
2023-04-29T04:46:35.160Z,7.40
2023-04-29T04:49:25.213Z,7.50
2023-04-29T04:51:54.102Z,7.50
2023-04-29T04:54:21.170Z,7.60
2023-04-29T04:56:52.912Z,7.60
2023-04-29T04:59:21.007Z,7.80
2023-04-29T05:01:48.607Z,7.70
2023-04-29T05:04:16.376Z,7.80
2023-04-29T05:06:43.989Z,7.90
2023-04-29T05:09:11.041Z,7.90
2023-04-29T05:11:38.857Z,8.00
2023-04-29T05:14:11.148Z,8.10
2023-04-29T05:16:39.503Z,8.10
2023-04-29T05:19:06.816Z,8.20
2023-04-29T05:21:38.153Z,8.30
2023-04-29T05:24:06.580Z,8.30
2023-04-29T05:26:33.906Z,8.50
2023-04-29T05:29:02.225Z,8.50
2023-04-29T05:31:34.116Z,8.70
2023-04-29T05:34:07.323Z,8.70
2023-04-29T05:36:34.888Z,8.80
2023-04-29T05:39:02.374Z,8.90
2023-04-29T05:41:30.716Z,9.30
2023-04-29T05:44:21.001Z,9.10
2023-04-29T05:46:48.832Z,9.20
2023-04-29T05:49:16.697Z,9.30
2023-04-29T05:51:45.291Z,9.40
2023-04-29T05:54:12.415Z,9.50
2023-04-29T05:56:40.928Z,9.60
2023-04-29T05:59:08.575Z,9.80
2023-04-29T06:01:37.037Z,9.90
2023-04-29T06:04:05.068Z,9.90
2023-04-29T06:06:39.965Z,10.00
2023-04-29T06:09:28.271Z,10.10
2023-04-29T06:12:03.519Z,10.20
2023-04-29T06:14:30.972Z,10.30
2023-04-29T06:16:59.558Z,10.30
2023-04-29T06:19:27.718Z,10.30
2023-04-29T06:21:55.315Z,10.40
2023-04-29T06:24:22.288Z,10.40
2023-04-29T06:26:49.781Z,10.70
2023-04-29T06:29:17.341Z,10.60
2023-04-29T06:31:45.625Z,10.70
2023-04-29T06:34:13.218Z,10.70
2023-04-29T06:36:56.607Z,10.80
2023-04-29T06:39:46.839Z,11.00
2023-04-29T06:42:37.237Z,11.10
2023-04-29T06:45:33.916Z,11.20
2023-04-29T06:48:11.403Z,11.30
2023-04-29T06:50:55.437Z,11.40
2023-04-29T06:53:23.941Z,11.50
2023-04-29T06:55:51.394Z,11.60
2023-04-29T06:58:21.374Z,11.70
2023-04-29T07:00:50.742Z,11.80
2023-04-29T07:03:19.116Z,11.90
2023-04-29T07:05:46.432Z,12.00
2023-04-29T07:08:14.334Z,12.10
2023-04-29T07:10:41.744Z,12.10
2023-04-29T07:13:09.153Z,12.20
2023-04-29T07:15:37.196Z,12.30
2023-04-29T07:18:05.588Z,12.40
2023-04-29T07:20:33.242Z,12.50
2023-04-29T07:23:01.235Z,12.50
2023-04-29T07:25:29.794Z,12.60
2023-04-29T07:27:57.613Z,12.50
2023-04-29T07:30:25.977Z,12.80
2023-04-29T07:32:54.465Z,12.90
2023-04-29T07:35:21.698Z,13.10
2023-04-29T07:37:49.550Z,13.10
2023-04-29T07:40:16.675Z,13.20
2023-04-29T07:42:46.010Z,13.30
2023-04-29T07:45:14.715Z,13.30
2023-04-29T07:47:42.115Z,13.40
2023-04-29T07:50:09.559Z,13.40
2023-04-29T07:52:37.589Z,13.50
2023-04-29T07:55:05.102Z,13.60
2023-04-29T07:57:32.806Z,13.70
2023-04-29T07:59:59.939Z,13.80
2023-04-29T08:02:27.952Z,13.90
2023-04-29T08:04:56.822Z,14.00
2023-04-29T08:07:24.876Z,14.10
2023-04-29T08:09:52.281Z,14.10
2023-04-29T08:12:19.743Z,14.10
2023-04-29T08:14:46.993Z,14.20
2023-04-29T08:17:14.294Z,14.20
2023-04-29T08:19:41.698Z,14.30
2023-04-29T08:22:11.418Z,14.30
2023-04-29T08:24:38.709Z,14.40
2023-04-29T08:27:06.039Z,14.50
2023-04-29T08:29:33.382Z,14.50
2023-04-29T08:32:01.199Z,14.60
2023-04-29T08:34:28.343Z,14.70
2023-04-29T08:36:57.981Z,14.70
2023-04-29T08:39:25.992Z,14.80
2023-04-29T08:41:55.225Z,14.80
2023-04-29T08:44:22.591Z,14.90
2023-04-29T08:46:51.276Z,14.90
2023-04-29T08:49:18.712Z,15.00
2023-04-29T08:51:51.797Z,15.10
2023-04-29T08:54:19.202Z,15.20
2023-04-29T08:56:48.021Z,15.30
2023-04-29T08:59:17.172Z,15.30
2023-04-29T09:01:51.271Z,15.40
2023-04-29T09:04:37.166Z,15.50
2023-04-29T09:07:07.345Z,15.50
2023-04-29T09:09:34.977Z,15.60
2023-04-29T09:12:03.069Z,15.70
2023-04-29T09:14:34.613Z,15.80
2023-04-29T09:17:02.073Z,15.80
2023-04-29T09:19:31.964Z,15.90
2023-04-29T09:22:00.306Z,16.00
2023-04-29T09:24:28.791Z,16.00
2023-04-29T09:26:56.639Z,16.10
2023-04-29T09:29:24.208Z,16.10
2023-04-29T09:31:56.154Z,16.10
2023-04-29T09:34:39.862Z,16.20
2023-04-29T09:37:28.133Z,16.20
2023-04-29T09:39:56.562Z,16.30
2023-04-29T09:42:24.415Z,16.40
2023-04-29T09:44:52.524Z,16.50
2023-04-29T09:47:30.789Z,16.50
2023-04-29T09:50:13.738Z,16.60
2023-04-29T09:52:42.651Z,16.70
2023-04-29T09:55:10.702Z,16.80
2023-04-29T09:57:44.829Z,16.80
2023-04-29T10:00:13.474Z,16.90
2023-04-29T10:02:50.516Z,17.00
2023-04-29T10:05:18.054Z,17.00
2023-04-29T10:07:48.553Z,17.10
2023-04-29T10:10:17.018Z,17.20
2023-04-29T10:12:45.316Z,17.30
2023-04-29T10:15:40.039Z,17.30
2023-04-29T10:18:19.299Z,17.30
2023-04-29T10:20:47.577Z,17.40
2023-04-29T10:23:15.980Z,17.40
2023-04-29T10:25:44.887Z,17.80
2023-04-29T10:28:17.029Z,18.30
2023-04-29T10:30:45.170Z,18.90
2023-04-29T10:33:16.571Z,19.50
2023-04-29T10:35:49.347Z,20.00
2023-04-29T10:38:31.165Z,20.60
2023-04-29T10:40:59.933Z,20.70
2023-04-29T10:43:27.587Z,20.80
2023-04-29T10:46:16.410Z,20.60
2023-04-29T10:48:44.498Z,20.40
2023-04-29T10:51:11.820Z,20.20
2023-04-29T10:54:08.649Z,20.00
2023-04-29T10:56:37.388Z,19.80
2023-04-29T10:59:05.192Z,19.50
2023-04-29T11:01:53.833Z,19.20
2023-04-29T11:04:22.831Z,19.00
2023-04-29T11:06:55.096Z,18.90
2023-04-29T11:09:34.323Z,18.80
2023-04-29T11:12:06.168Z,18.70
2023-04-29T11:14:43.565Z,18.70
2023-04-29T11:17:15.299Z,18.60
2023-04-29T11:19:53.296Z,18.60
2023-04-29T11:22:24.227Z,18.60
2023-04-29T11:25:09.091Z,18.60
2023-04-29T11:27:42.773Z,18.70
2023-04-29T11:30:10.612Z,18.60
2023-04-29T11:32:45.813Z,18.60
2023-04-29T11:35:18.101Z,18.70
2023-04-29T11:37:47.002Z,18.70
2023-04-29T11:40:15.431Z,18.80
2023-04-29T11:42:45.728Z,18.80
2023-04-29T11:45:13.777Z,18.90
2023-04-29T11:47:46.237Z,18.90
2023-04-29T11:50:17.735Z,18.90
2023-04-29T11:52:47.651Z,19.00
2023-04-29T11:55:15.831Z,19.00
2023-04-29T11:57:42.941Z,19.00
2023-04-29T12:00:14.240Z,19.10
2023-04-29T12:02:46.617Z,19.10
2023-04-29T12:05:16.128Z,19.20
2023-04-29T12:07:43.647Z,19.30
2023-04-29T12:10:12.489Z,19.30
2023-04-29T12:12:47.002Z,19.30
2023-04-29T12:15:15.111Z,19.20
2023-04-29T12:17:43.620Z,19.20
2023-04-29T12:20:12.980Z,19.20
2023-04-29T12:22:41.575Z,19.30
2023-04-29T12:25:09.733Z,19.30
2023-04-29T12:27:39.705Z,19.30
2023-04-29T12:30:09.475Z,19.30
2023-04-29T12:32:38.322Z,19.30
2023-04-29T12:35:07.387Z,19.30
2023-04-29T12:37:35.603Z,19.40
2023-04-29T12:40:03.738Z,19.60
2023-04-29T12:42:36.811Z,19.70
2023-04-29T12:45:06.646Z,19.80
2023-04-29T12:47:37.797Z,20.10
2023-04-29T12:50:07.316Z,20.70
2023-04-29T12:52:36.629Z,21.00
2023-04-29T12:55:05.022Z,21.40
2023-04-29T12:57:32.202Z,21.70
2023-04-29T13:00:01.583Z,22.00
2023-04-29T13:02:28.853Z,22.40
2023-04-29T13:04:56.639Z,22.70
2023-04-29T13:07:24.329Z,23.10
2023-04-29T13:09:51.769Z,23.30
2023-04-29T13:12:19.053Z,23.50
2023-04-29T13:14:46.993Z,23.90
2023-04-29T13:17:14.202Z,23.90
2023-04-29T13:19:51.059Z,24.10
2023-04-29T13:22:19.480Z,24.20
2023-04-29T13:24:47.787Z,24.20
2023-04-29T13:27:14.987Z,24.30
2023-04-29T13:29:42.331Z,24.30
2023-04-29T13:32:09.682Z,24.50
2023-04-29T13:34:37.299Z,24.50
2023-04-29T13:37:04.468Z,24.70
2023-04-29T13:39:31.992Z,25.10
2023-04-29T13:41:59.816Z,25.00
2023-04-29T13:44:35.875Z,24.80
2023-04-29T13:47:16.643Z,24.70
2023-04-29T13:50:14.767Z,25.00
2023-04-29T13:55:57.907Z,24.90
2023-04-29T13:58:36.438Z,24.90
2023-04-29T14:03:12.316Z,23.60
2023-04-29T14:05:39.978Z,23.30
2023-04-29T14:08:07.483Z,23.30
2023-04-29T14:10:35.044Z,23.10
2023-04-29T14:13:03.206Z,22.90
2023-04-29T14:15:31.149Z,22.50
2023-04-29T14:17:58.365Z,22.20
2023-04-29T14:20:26.155Z,21.70
2023-04-29T14:22:53.489Z,21.30
2023-04-29T14:25:21.065Z,20.80
2023-04-29T14:27:49.292Z,20.60
2023-04-29T14:30:18.098Z,20.60
2023-04-29T14:32:46.275Z,20.50
2023-04-29T14:35:13.869Z,20.50
2023-04-29T14:37:41.013Z,20.70
2023-04-29T14:40:09.550Z,20.80
2023-04-29T14:42:37.002Z,20.80
2023-04-29T14:45:05.006Z,20.80
2023-04-29T14:47:32.068Z,20.60
2023-04-29T14:50:00.152Z,20.70
2023-04-29T14:52:27.737Z,20.90
2023-04-29T14:54:55.311Z,21.30
2023-04-29T14:57:22.595Z,21.70
2023-04-29T14:59:50.212Z,22.10
2023-04-29T15:02:17.441Z,22.10
2023-04-29T15:04:46.183Z,22.10
2023-04-29T15:07:13.926Z,21.90
2023-04-29T15:09:41.864Z,21.70
2023-04-29T15:12:09.639Z,21.50
2023-04-29T15:14:37.315Z,21.20
2023-04-29T15:17:04.503Z,20.90
2023-04-29T15:19:32.900Z,20.70
2023-04-29T15:21:59.935Z,20.40
2023-04-29T15:24:28.034Z,20.30
2023-04-29T15:26:55.114Z,20.30
2023-04-29T15:29:22.862Z,20.20
2023-04-29T15:31:50.158Z,20.20
2023-04-29T15:34:17.588Z,20.10
2023-04-29T15:36:45.060Z,20.00
2023-04-29T15:39:12.948Z,20.00
2023-04-29T15:41:40.129Z,20.00
2023-04-29T15:44:07.508Z,20.00
2023-04-29T15:46:34.972Z,19.90
2023-04-29T15:49:02.512Z,19.80
2023-04-29T15:51:29.732Z,19.70
2023-04-29T15:53:57.058Z,19.70
2023-04-29T15:56:25.841Z,19.70
2023-04-29T15:58:53.882Z,19.70
2023-04-29T16:01:21.227Z,19.80
2023-04-29T16:03:48.988Z,19.70
2023-04-29T16:06:16.840Z,19.70
2023-04-29T16:08:44.175Z,19.50
2023-04-29T16:11:11.223Z,19.30
2023-04-29T16:13:38.696Z,19.10
2023-04-29T16:16:06.432Z,18.90
2023-04-29T16:18:33.993Z,18.70
2023-04-29T16:21:01.407Z,18.50
2023-04-29T16:23:29.102Z,19.30
2023-04-29T16:25:56.226Z,18.20
2023-04-29T16:28:24.251Z,18.10
2023-04-29T16:30:51.535Z,18.00
2023-04-29T16:33:19.131Z,17.80
2023-04-29T16:35:46.142Z,17.70
2023-04-29T16:38:13.750Z,17.60
2023-04-29T16:40:41.066Z,17.50
2023-04-29T16:43:08.455Z,17.40
2023-04-29T16:45:36.837Z,17.30
2023-04-29T16:48:04.803Z,17.20
2023-04-29T16:50:31.985Z,17.10
2023-04-29T16:52:59.730Z,17.00
2023-04-29T16:55:26.935Z,16.90
2023-04-29T16:57:54.266Z,16.80
2023-04-29T17:00:21.719Z,16.70
2023-04-29T17:02:51.260Z,16.70
2023-04-29T17:05:19.734Z,16.60
2023-04-29T17:07:47.693Z,16.50
2023-04-29T17:10:14.707Z,16.50
2023-04-29T17:12:42.790Z,16.40
2023-04-29T17:15:10.441Z,16.40
2023-04-29T17:17:37.891Z,16.40
2023-04-29T17:20:06.262Z,16.30
2023-04-29T17:22:33.808Z,16.30
2023-04-29T17:25:00.978Z,16.20
2023-04-29T17:27:28.574Z,16.20
2023-04-29T17:29:55.868Z,16.20
2023-04-29T17:32:28.643Z,16.10
2023-04-29T17:34:56.424Z,16.00
2023-04-29T17:37:25.685Z,16.00
2023-04-29T17:39:53.208Z,15.90
2023-04-29T17:42:23.823Z,15.90
2023-04-29T17:44:51.101Z,15.80
2023-04-29T17:47:19.725Z,15.80
2023-04-29T17:49:48.496Z,15.80
2023-04-29T17:52:17.524Z,15.70
2023-04-29T17:54:44.603Z,15.70
2023-04-29T17:57:12.106Z,15.70
2023-04-29T17:59:39.327Z,15.60
2023-04-29T18:02:07.504Z,15.60
2023-04-29T18:04:35.572Z,15.50
2023-04-29T18:07:03.206Z,15.50
2023-04-29T18:09:30.314Z,15.50
2023-04-29T18:11:58.138Z,15.40
2023-04-29T18:14:27.573Z,15.40
2023-04-29T18:16:55.429Z,15.40
2023-04-29T18:19:22.555Z,15.40
2023-04-29T18:21:50.017Z,15.30
2023-04-29T18:24:17.306Z,15.20
2023-04-29T18:26:44.609Z,15.30
2023-04-29T18:29:12.034Z,15.20
2023-04-29T18:31:39.829Z,15.20
2023-04-29T18:34:07.427Z,15.10
2023-04-29T18:36:34.781Z,15.10
2023-04-29T18:39:01.950Z,15.10
2023-04-29T18:41:29.271Z,15.00
2023-04-29T18:43:57.055Z,15.00
2023-04-29T18:46:24.620Z,15.00
2023-04-29T18:48:52.342Z,15.00
2023-04-29T18:51:19.735Z,14.90
2023-04-29T18:53:46.713Z,14.90
2023-04-29T18:56:14.695Z,14.90
2023-04-29T18:58:41.821Z,14.80
2023-04-29T19:01:09.772Z,14.80
2023-04-29T19:03:37.137Z,14.80
2023-04-29T19:06:05.016Z,14.70
2023-04-29T19:08:32.139Z,14.70
2023-04-29T19:11:00.759Z,14.60
2023-04-29T19:13:29.456Z,14.60
2023-04-29T19:15:56.810Z,14.60
2023-04-29T19:18:24.170Z,14.60
2023-04-29T19:20:53.564Z,14.50
2023-04-29T19:23:21.426Z,14.50
2023-04-29T19:25:48.750Z,14.50
2023-04-29T19:28:16.129Z,14.50
2023-04-29T19:30:44.187Z,14.50
2023-04-29T19:33:11.320Z,14.40
2023-04-29T19:35:38.994Z,14.40
2023-04-29T19:38:06.053Z,14.40
2023-04-29T19:40:33.657Z,14.40
2023-04-29T19:43:00.973Z,14.30
2023-04-29T19:45:28.396Z,14.30
2023-04-29T19:47:55.514Z,14.30
2023-04-29T19:50:23.420Z,14.30
2023-04-29T19:52:50.798Z,14.30
2023-04-29T19:55:18.213Z,14.30
2023-04-29T19:57:45.577Z,14.20
2023-04-29T20:00:14.599Z,14.20
2023-04-29T20:02:42.342Z,14.20
2023-04-29T20:05:10.922Z,14.10
2023-04-29T20:07:38.022Z,14.10
2023-04-29T20:10:07.200Z,14.00
2023-04-29T20:12:35.966Z,14.10
2023-04-29T20:15:05.846Z,14.00
2023-04-29T20:17:32.888Z,14.00
2023-04-29T20:20:00.554Z,13.90
2023-04-29T20:22:27.755Z,13.90
2023-04-29T20:24:55.521Z,13.80
2023-04-29T20:27:22.701Z,13.80
2023-04-29T20:29:50.030Z,13.80
2023-04-29T20:32:18.194Z,13.80
2023-04-29T20:34:45.864Z,13.70
2023-04-29T20:37:12.924Z,13.70
2023-04-29T20:39:40.319Z,13.70
2023-04-29T20:42:07.874Z,13.60
2023-04-29T20:44:35.476Z,13.60
2023-04-29T20:47:03.649Z,13.50
2023-04-29T20:49:30.977Z,13.50
2023-04-29T20:52:00.190Z,13.40
2023-04-29T20:54:27.654Z,13.40
2023-04-29T20:56:54.725Z,13.40
2023-04-29T20:59:22.051Z,13.40
2023-04-29T21:01:49.514Z,13.30
2023-04-29T21:04:17.419Z,13.30
2023-04-29T21:06:44.640Z,13.30
2023-04-29T21:09:12.117Z,13.30
2023-04-29T21:11:39.265Z,13.30
2023-04-29T21:14:06.748Z,13.30
2023-04-29T21:16:33.787Z,13.30
2023-04-29T21:19:01.376Z,13.30
2023-04-29T21:21:28.442Z,13.20
2023-04-29T21:23:56.127Z,13.20
2023-04-29T21:26:23.633Z,13.30
2023-04-29T21:28:51.233Z,13.20
2023-04-29T21:31:18.537Z,13.20
2023-04-29T21:33:46.405Z,13.20
2023-04-29T21:36:16.816Z,13.20
2023-04-29T21:38:44.277Z,13.20
2023-04-29T21:41:30.903Z,13.20
2023-04-29T21:44:00.623Z,13.10
2023-04-29T21:46:28.812Z,13.10
2023-04-29T21:48:57.933Z,13.10
2023-04-29T21:51:26.419Z,13.10
2023-04-29T21:53:53.968Z,13.00
2023-04-29T21:56:22.779Z,13.00
2023-04-29T21:58:50.657Z,13.00
2023-04-29T22:01:27.453Z,12.90
2023-04-29T22:03:57.056Z,12.90
2023-04-29T22:06:24.858Z,12.90
2023-04-29T22:08:52.713Z,12.90
2023-04-29T22:11:22.195Z,12.80
2023-04-29T22:13:49.673Z,12.80
2023-04-29T22:16:18.687Z,12.70
2023-04-29T22:18:46.766Z,12.70
2023-04-29T22:21:13.850Z,12.70
2023-04-29T22:23:41.798Z,12.70
2023-04-29T22:26:08.875Z,12.60
2023-04-29T22:28:36.739Z,12.60
2023-04-29T22:31:04.169Z,12.50
2023-04-29T22:33:31.569Z,12.50
2023-04-29T22:35:59.013Z,12.50
2023-04-29T22:38:26.511Z,12.40
2023-04-29T22:40:53.679Z,12.40
2023-04-29T22:43:21.027Z,12.40
2023-04-29T22:45:54.978Z,12.40
2023-04-29T22:48:25.794Z,12.40
2023-04-29T22:50:56.710Z,12.40
2023-04-29T22:53:24.382Z,12.30
2023-04-29T22:55:55.882Z,12.30
2023-04-29T22:58:25.666Z,12.30
2023-04-29T23:00:57.591Z,12.20
2023-04-29T23:03:25.674Z,12.30
2023-04-29T23:05:58.259Z,12.30
2023-04-29T23:08:27.616Z,12.20
2023-04-29T23:10:54.734Z,12.20
2023-04-29T23:13:22.811Z,12.20
2023-04-29T23:15:49.848Z,12.20
2023-04-29T23:18:17.436Z,12.20
2023-04-29T23:20:48.262Z,12.20
2023-04-29T23:23:16.008Z,12.20
2023-04-29T23:25:43.443Z,12.20
2023-04-29T23:28:11.672Z,12.20
2023-04-29T23:30:38.735Z,12.20
2023-04-29T23:33:06.650Z,12.20
2023-04-29T23:35:33.977Z,12.10
2023-04-29T23:38:01.333Z,12.10
2023-04-29T23:40:29.060Z,12.10
2023-04-29T23:42:57.823Z,12.10
2023-04-29T23:45:25.071Z,12.00
2023-04-29T23:47:52.668Z,12.00
2023-04-29T23:50:20.047Z,11.90
2023-04-29T23:52:47.878Z,11.90
2023-04-29T23:55:14.938Z,11.80
2023-04-29T23:57:42.502Z,11.80
